ADDS TAF Board (Experimental) INFO Settings

IDs: Format: Expanded Condensed

KDCA - Washington/National, VA, US

Issued at 2324 UTC 26 Mar 2015
Updated at: 2344 UTC 26 Mar 2015
Time2341Z 27/00Z 27/01Z 27/02Z 27/03Z 27/04Z 27/05Z 27/06Z 27/07Z 27/08Z 27/09Z 27/10Z 27/11Z 27/12Z
Type OBS PRVL PRVL PRVL PRVL PRVL PRVL PRVL PRVL PRVL PRVL PRVL PRVL PRVL
VIS 10 >6 5 5 5 5 5 5 5 5 5 5 5 5
CIG 80 250 30 30 30 30 15 15 15 15 15 15 15 15
Cover OVC OVC OVC OVC OVC OVC OVC OVC OVC OVC OVC OVC OVC OVC
FltCat VFR VFR MVFR MVFR MVFR MVFR MVFR MVFR MVFR MVFR MVFR MVFR MVFR MVFR
WX -- -- -SHRA -SHRA -SHRA -SHRA -RA -RA -RA -RA -RA -RA -RA -RA
WDir 230 210 260 260 260 260 340 340 340 340 340 340 340 340
WSpd 8 14 12 12 12 12 12 12 12 12 12 12 12 8
WGst -- 20 20 20 20 20 20 20 20 20 20 20 20 --
R01/19
XWnd 7 8 12 12 12 12 3 3 3 3 3 3 3 2
XGst -- 11 20 20 20 20 5 5 5 5 5 5 5 --
HWnd -5 -11 -1 -1 -1 -1 12 12 12 12 12 12 12 8
HGst -- -16 -2 -2 -2 -2 19 19 19 19 19 19 19 --
R04/22
XWnd 3 1 10 10 10 10 9 9 9 9 9 9 9 6
XGst -- 1 16 16 16 16 14 14 14 14 14 14 14 --
HWnd -7 -14 -7 -7 -7 -7 8 8 8 8 8 8 8 6
HGst -- -20 -12 -12 -12 -12 14 14 14 14 14 14 14 --
R15/33
XWnd -8 -13 -11 -11 -11 -11 4 4 4 4 4 4 4 2
XGst -- -18 -18 -18 -18 -18 6 6 6 6 6 6 6 --
HWnd 0 5 -5 -5 -5 -5 -11 -11 -11 -11 -11 -11 -11 -8
HGst -- 8 -9 -9 -9 -9 -19 -19 -19 -19 -19 -19 -19 --

NOTE: TEMPO conditions in [brackets]. Keep in mind TEMPO conditions might be better (lower impact) than prevailing conditions.

Raw TAF
KDCA 262324Z 2700/2724 21014G20KT P6SM SCT045 SCT180 OVC250
  FM270030 26012G20KT 5SM -SHRA OVC030
  FM270500 34012G20KT 5SM -RA OVC015
  FM271200 34008KT 5SM -RA OVC015
  FM271600 34009KT P6SM OVC025
  FM271800 34009KT P6SM BKN050
  FM272300 33005KT P6SM BKN050


Raw METAR
KDCA 262341Z 23008KT 10SM SCT045CB BKN080 BKN110 OVC250 23/11 A2961 RMK AO2 CB VC W-N AND DSNT NE MOV NE
KDCA 262315Z 21011KT 10SM SCT045 SCT090 BKN180 OVC250 23/11 A2960 RMK AO2 CB DSNT W-N MOV NE
KDCA 262252Z 21014G20KT 10SM SCT045 SCT180 OVC250 24/12 A2959 RMK AO2 SLP020 T02390117
KDCA 262152Z 21013G22KT 10SM FEW040 BKN250 24/12 A2959 RMK AO2 SLP019 T02440122
KDCA 262052Z 19012G22KT 10SM FEW040 BKN250 24/13 A2961 RMK AO2 PK WND 20026/2005 SLP027 T02390133 56048

METAR Board
Radar Display
Forecast Discussion

TAF Board Legend

Potential Impact
Threat None Slight Moderate High
Visibility (sm) ≥5.1 5.1>X≥3 3>X≥1 <1
Ceiling (100 ft) ≥30.1 30.1>X≥10 10>X≥5 <5
Wind Speed (kt) <10 10≤X<20 20≤X<30 ≥30
Wind Gust (kt) <15 15≤X<25 25≤X<35 ≥35
Weather No Wx Reported VCTS,-TS,-FZRA,SN TS,FZRA +TS,+FZRA,+SN